createdAt,value
2023-01-21T00:00:37.539Z,-0.91
2023-01-21T00:03:21.091Z,-1.01
2023-01-21T00:05:59.487Z,-0.85
2023-01-21T00:08:31.862Z,-0.72
2023-01-21T00:11:09.153Z,-0.66
2023-01-21T00:13:49.302Z,-0.61
2023-01-21T00:16:20.963Z,-0.71
2023-01-21T00:18:51.714Z,-0.57
2023-01-21T00:21:21.300Z,-0.93
2023-01-21T00:23:50.814Z,-0.74
2023-01-21T00:26:23.306Z,-0.83
2023-01-21T00:28:52.835Z,-0.77
2023-01-21T00:31:23.378Z,-0.86
2023-01-21T00:33:54.056Z,-0.67
2023-01-21T00:36:29.912Z,-0.55
2023-01-21T00:39:22.527Z,-0.62
2023-01-21T00:41:52.068Z,-0.47
2023-01-21T00:44:32.636Z,-0.37
2023-01-21T00:47:11.353Z,-0.49
2023-01-21T00:49:42.312Z,-0.41
2023-01-21T00:52:14.171Z,-0.46
2023-01-21T00:54:55.569Z,-0.47
2023-01-21T00:57:27.414Z,-0.72
2023-01-21T00:59:56.665Z,-0.63
2023-01-21T01:02:25.697Z,-0.75
2023-01-21T01:04:56.840Z,-0.77
2023-01-21T01:08:04.071Z,-0.77
2023-01-21T01:10:24.527Z,-0.78
2023-01-21T01:12:53.642Z,-0.84
2023-01-21T01:15:34.599Z,-0.70
2023-01-21T01:18:04.198Z,-0.69
2023-01-21T01:20:35.046Z,-0.93
2023-01-21T01:23:05.574Z,-1.14
2023-01-21T01:25:39.164Z,-1.06
2023-01-21T01:28:08.444Z,-1.18
2023-01-21T01:30:37.786Z,-1.14
2023-01-21T01:33:07.797Z,-1.09
2023-01-21T01:35:48.669Z,-1.13
2023-01-21T01:38:22.200Z,-1.09
2023-01-21T01:40:53.413Z,-1.09
2023-01-21T01:43:25.073Z,-1.07
2023-01-21T01:45:55.817Z,-1.20
2023-01-21T01:48:28.485Z,-1.23
2023-01-21T01:51:00.748Z,-1.20
2023-01-21T01:53:32.192Z,-1.01
2023-01-21T01:56:02.027Z,-0.91
2023-01-21T01:58:32.113Z,-1.05
2023-01-21T02:01:01.447Z,-0.85
2023-01-21T02:03:46.279Z,-0.85
2023-01-21T02:06:25.037Z,-0.69
2023-01-21T02:09:04.792Z,-0.62
2023-01-21T02:11:41.663Z,-0.69
2023-01-21T02:14:14.497Z,-0.68
2023-01-21T02:17:01.852Z,-0.67
2023-01-21T02:19:48.791Z,-0.56
2023-01-21T02:22:29.002Z,-0.47
2023-01-21T02:25:28.148Z,-0.45
2023-01-21T02:28:07.893Z,-0.30
2023-01-21T02:30:48.587Z,-0.24
2023-01-21T02:33:46.408Z,-0.23
2023-01-21T02:36:28.838Z,-0.31
2023-01-21T02:39:03.873Z,-0.42
2023-01-21T02:41:45.569Z,-0.34
2023-01-21T02:44:37.469Z,-0.30
2023-01-21T02:47:15.588Z,-0.25
2023-01-21T02:49:48.087Z,-0.22
2023-01-21T02:52:21.271Z,-0.22
2023-01-21T02:54:55.491Z,-0.37
2023-01-21T02:57:40.969Z,-0.38
2023-01-21T03:00:15.120Z,-0.35
2023-01-21T03:03:06.707Z,-0.37
2023-01-21T03:05:50.136Z,-0.53
2023-01-21T03:08:22.494Z,-0.60
2023-01-21T03:10:56.024Z,-0.55
2023-01-21T03:13:49.609Z,-0.83
2023-01-21T03:16:39.733Z,-0.90
2023-01-21T03:19:13.076Z,-1.02
2023-01-21T03:21:44.294Z,-0.97
2023-01-21T03:24:19.768Z,-0.85
2023-01-21T03:26:53.428Z,-1.01
2023-01-21T03:29:28.256Z,-1.30
2023-01-21T03:32:16.565Z,-1.23
2023-01-21T03:35:07.145Z,-1.37
2023-01-21T03:37:43.412Z,-1.39
2023-01-21T03:40:16.573Z,-1.37
2023-01-21T03:42:46.624Z,-1.38
2023-01-21T03:45:18.566Z,-1.31
2023-01-21T03:47:53.925Z,-1.39
2023-01-21T03:50:27.439Z,-1.46
2023-01-21T03:52:58.119Z,-1.53
2023-01-21T03:55:45.399Z,-1.40
2023-01-21T03:58:14.584Z,-1.37
2023-01-21T04:00:43.612Z,-1.33
2023-01-21T04:03:12.483Z,-1.33
2023-01-21T04:05:41.872Z,-1.20
2023-01-21T04:08:25.368Z,-1.20
2023-01-21T04:10:57.472Z,-1.13
2023-01-21T04:13:26.422Z,-1.14
2023-01-21T04:16:10.036Z,-1.30
2023-01-21T04:18:41.734Z,-1.15
2023-01-21T04:21:10.846Z,-1.05
2023-01-21T04:23:41.930Z,-1.01
2023-01-21T04:26:11.623Z,-1.03
2023-01-21T04:28:40.677Z,-1.09
2023-01-21T04:31:09.670Z,-1.17
2023-01-21T04:33:38.900Z,-1.24
2023-01-21T04:36:11.073Z,-1.41
2023-01-21T04:38:41.600Z,-1.32
2023-01-21T04:41:17.981Z,-1.28
2023-01-21T04:43:46.768Z,-1.19
2023-01-21T04:46:16.124Z,-1.35
2023-01-21T04:48:45.367Z,-1.24
2023-01-21T04:51:14.794Z,-1.24
2023-01-21T04:53:46.830Z,-1.15
2023-01-21T04:56:15.791Z,-1.07
2023-01-21T04:58:45.127Z,-1.07
2023-01-21T05:01:14.060Z,-1.05
2023-01-21T05:03:43.329Z,-0.93
2023-01-21T05:06:12.618Z,-0.97
2023-01-21T05:08:43.404Z,-0.98
2023-01-21T05:11:17.651Z,-1.16
2023-01-21T05:13:54.431Z,-1.32
2023-01-21T05:16:29.174Z,-1.32
2023-01-21T05:19:08.827Z,-1.18
2023-01-21T05:21:41.616Z,-1.21
2023-01-21T05:24:11.317Z,-1.31
2023-01-21T05:26:42.133Z,-1.44
2023-01-21T05:29:11.148Z,-1.31
2023-01-21T05:31:40.410Z,-1.34
2023-01-21T05:34:09.443Z,-1.39
2023-01-21T05:36:41.406Z,-1.57
2023-01-21T05:39:10.400Z,-1.51
2023-01-21T05:41:44.324Z,-1.48
2023-01-21T05:44:14.649Z,-1.69
2023-01-21T05:46:45.111Z,-1.51
2023-01-21T05:49:14.113Z,-1.59
2023-01-21T05:52:11.216Z,-1.86
2023-01-21T05:54:52.401Z,-1.74
2023-01-21T05:57:30.808Z,-1.69
2023-01-21T06:00:03.497Z,-1.71
2023-01-21T06:02:54.073Z,-1.77
2023-01-21T06:05:23.471Z,-1.97
2023-01-21T06:07:52.996Z,-1.80
2023-01-21T06:10:22.500Z,-1.81
2023-01-21T06:12:55.180Z,-1.66
2023-01-21T06:15:33.937Z,-1.75
2023-01-21T06:18:05.669Z,-1.83
2023-01-21T06:20:52.276Z,-1.70
2023-01-21T06:23:36.728Z,-1.72
2023-01-21T06:26:12.376Z,-1.65
2023-01-21T06:28:43.516Z,-1.75
2023-01-21T06:31:12.793Z,-1.84
2023-01-21T06:33:42.228Z,-1.84
2023-01-21T06:36:11.938Z,-2.04
2023-01-21T06:38:41.116Z,-2.11
2023-01-21T06:41:13.719Z,-2.05
2023-01-21T06:43:47.832Z,-1.95
2023-01-21T06:46:17.397Z,-1.87
2023-01-21T06:48:46.834Z,-1.92
2023-01-21T06:51:26.231Z,-1.84
2023-01-21T06:53:55.586Z,-1.76
2023-01-21T06:56:44.033Z,-2.05
2023-01-21T06:59:16.406Z,-1.90
2023-01-21T07:02:16.126Z,-2.04
2023-01-21T07:04:50.772Z,-2.12
2023-01-21T07:07:42.480Z,-2.14
2023-01-21T07:10:14.798Z,-2.19
2023-01-21T07:12:44.443Z,-2.17
2023-01-21T07:15:19.934Z,-2.17
2023-01-21T07:17:53.371Z,-2.06
2023-01-21T07:20:23.215Z,-2.07
2023-01-21T07:22:55.605Z,-2.03
2023-01-21T07:25:24.986Z,-2.01
2023-01-21T07:27:57.176Z,-1.88
2023-01-21T07:30:28.517Z,-1.94
2023-01-21T07:33:08.872Z,-1.94
2023-01-21T07:36:02.628Z,-1.96
2023-01-21T07:38:41.962Z,-1.93
2023-01-21T07:41:10.983Z,-2.05
2023-01-21T07:43:40.174Z,-2.09
2023-01-21T07:46:10.931Z,-2.05
2023-01-21T07:48:44.288Z,-2.07
2023-01-21T07:51:16.515Z,-2.00
2023-01-21T07:53:45.860Z,-1.99
2023-01-21T07:56:15.137Z,-1.92
2023-01-21T07:58:45.609Z,-1.89
2023-01-21T08:01:28.797Z,-1.91
2023-01-21T08:04:00.792Z,-1.92
2023-01-21T08:06:30.796Z,-1.91
2023-01-21T08:09:00.309Z,-1.90
2023-01-21T08:11:41.648Z,-1.87
2023-01-21T08:14:11.112Z,-1.88
2023-01-21T08:17:17.079Z,-1.75
2023-01-21T08:19:55.900Z,-1.70
2023-01-21T08:22:31.549Z,-1.62
2023-01-21T08:25:00.444Z,-1.58
2023-01-21T08:27:30.150Z,-1.74
2023-01-21T08:29:59.124Z,-1.88
2023-01-21T08:32:35.282Z,-1.72
2023-01-21T08:35:04.607Z,-1.66
2023-01-21T08:37:33.805Z,-1.54
2023-01-21T08:40:05.972Z,-1.72
2023-01-21T08:42:35.205Z,-1.67
2023-01-21T08:45:05.103Z,-1.70
2023-01-21T08:47:35.725Z,-1.66
2023-01-21T08:50:15.257Z,-1.56
2023-01-21T08:52:55.217Z,-1.72
2023-01-21T08:55:26.883Z,-1.62
2023-01-21T08:57:56.273Z,-1.62
2023-01-21T09:00:34.484Z,-1.70
2023-01-21T09:03:06.116Z,-1.54
2023-01-21T09:05:35.243Z,-1.61
2023-01-21T09:08:05.026Z,-1.45
2023-01-21T09:10:53.006Z,-1.36
2023-01-21T09:13:22.269Z,-1.29
2023-01-21T09:15:51.696Z,-1.40
2023-01-21T09:18:22.418Z,-1.22
2023-01-21T09:20:51.933Z,-1.12
2023-01-21T09:23:46.637Z,-1.00
2023-01-21T09:26:24.312Z,-1.07
2023-01-21T09:29:02.951Z,-1.04
2023-01-21T09:31:32.342Z,-1.00
2023-01-21T09:34:15.674Z,-1.07
2023-01-21T09:36:45.085Z,-0.92
2023-01-21T09:39:14.798Z,-0.92
2023-01-21T09:41:46.160Z,-0.83
2023-01-21T09:44:20.874Z,-0.84
2023-01-21T09:46:56.224Z,-0.72
2023-01-21T09:49:40.367Z,-0.74
2023-01-21T09:52:27.416Z,-0.64
2023-01-21T09:54:58.119Z,-0.57
2023-01-21T09:57:39.913Z,-0.47
2023-01-21T10:00:21.503Z,-0.47
2023-01-21T10:02:55.919Z,-0.47
2023-01-21T10:05:43.967Z,-0.43
2023-01-21T10:08:20.333Z,-0.46
2023-01-21T10:10:53.156Z,-0.31
2023-01-21T10:13:36.348Z,-0.33
2023-01-21T10:16:12.717Z,-0.32
2023-01-21T10:18:44.068Z,-0.29
2023-01-21T10:21:20.692Z,-0.53
2023-01-21T10:24:16.158Z,-0.35
2023-01-21T10:26:49.338Z,-0.15
2023-01-21T10:29:23.972Z,-0.22
2023-01-21T10:31:59.706Z,-0.15
2023-01-21T10:34:33.226Z,-0.19
2023-01-21T10:37:14.499Z,-0.17
2023-01-21T10:39:50.871Z,-0.20
2023-01-21T10:42:51.465Z,-0.18
2023-01-21T10:45:27.828Z,-0.28
2023-01-21T10:48:05.575Z,-0.13
2023-01-21T10:50:42.564Z,-0.13
2023-01-21T10:53:22.521Z,-0.01
2023-01-21T10:56:01.652Z,-0.01
2023-01-21T10:58:36.885Z,-0.04
2023-01-21T11:01:09.819Z,-0.09
2023-01-21T11:03:41.723Z,-0.03
2023-01-21T11:06:12.766Z,-0.17
2023-01-21T11:08:46.836Z,-0.20
2023-01-21T11:11:26.627Z,-0.29
2023-01-21T11:13:56.185Z,-0.24
2023-01-21T11:16:44.592Z,-0.13
2023-01-21T11:19:15.730Z,-0.18
2023-01-21T11:22:04.306Z,-0.08
2023-01-21T11:24:55.082Z,0.07
2023-01-21T11:27:34.427Z,0.09
2023-01-21T11:30:49.104Z,0.12
2023-01-21T11:33:25.893Z,0.05
2023-01-21T11:35:58.954Z,0.17
2023-01-21T11:38:34.182Z,0.16
2023-01-21T11:41:17.939Z,0.15
2023-01-21T11:43:50.000Z,0.11
2023-01-21T11:46:33.166Z,0.08
2023-01-21T11:49:24.419Z,0.18
2023-01-21T11:52:14.025Z,0.16
2023-01-21T11:54:53.662Z,0.18
2023-01-21T11:57:35.167Z,0.17
2023-01-21T12:00:20.735Z,0.25
2023-01-21T12:02:55.778Z,0.38
2023-01-21T12:05:32.453Z,0.42
2023-01-21T12:08:02.459Z,0.33
2023-01-21T12:10:35.533Z,0.38
2023-01-21T12:13:20.322Z,0.33
2023-01-21T12:16:22.244Z,0.45
2023-01-21T12:19:16.950Z,0.46
2023-01-21T12:21:59.590Z,0.45
2023-01-21T12:24:37.710Z,0.50
2023-01-21T12:27:17.528Z,0.36
2023-01-21T12:30:00.069Z,0.45
2023-01-21T12:32:32.840Z,0.61
2023-01-21T12:35:12.491Z,0.60
2023-01-21T12:37:47.115Z,0.49
2023-01-21T12:40:19.791Z,0.48
2023-01-21T12:42:53.175Z,0.57
2023-01-21T12:45:27.410Z,0.54
2023-01-21T12:47:59.373Z,0.67
2023-01-21T12:50:32.055Z,0.79
2023-01-21T12:53:28.181Z,0.59
2023-01-21T12:56:21.554Z,0.55
2023-01-21T12:58:56.082Z,0.45
2023-01-21T13:01:44.140Z,0.55
2023-01-21T13:04:56.697Z,0.56
2023-01-21T13:07:31.714Z,0.62
2023-01-21T13:10:06.295Z,0.58
2023-01-21T13:12:37.035Z,0.52
2023-01-21T13:15:15.556Z,0.62
2023-01-21T13:17:49.453Z,0.73
2023-01-21T13:20:23.259Z,0.61
2023-01-21T13:23:08.317Z,0.56
2023-01-21T13:25:43.761Z,0.68
2023-01-21T13:28:17.071Z,0.78
2023-01-21T13:30:49.316Z,0.81
2023-01-21T13:33:30.212Z,0.80
2023-01-21T13:36:08.111Z,0.71
2023-01-21T13:38:47.315Z,0.74
2023-01-21T13:41:26.080Z,0.76
2023-01-21T13:44:15.453Z,0.71
2023-01-21T13:46:55.246Z,0.78
2023-01-21T13:50:06.405Z,0.79
2023-01-21T13:52:47.861Z,0.87
2023-01-21T13:55:27.508Z,0.75
2023-01-21T13:58:16.470Z,0.68
2023-01-21T14:00:47.838Z,0.58
2023-01-21T14:03:25.722Z,0.53
2023-01-21T14:06:01.169Z,0.56
2023-01-21T14:08:34.584Z,0.42
2023-01-21T14:11:06.742Z,0.40
2023-01-21T14:13:55.802Z,0.42
2023-01-21T14:16:42.003Z,0.37
2023-01-21T14:19:38.431Z,0.24
2023-01-21T14:22:20.225Z,0.24
2023-01-21T14:25:04.059Z,0.21
2023-01-21T14:27:40.918Z,0.20
2023-01-21T14:30:14.876Z,0.24
2023-01-21T14:32:50.513Z,0.12
2023-01-21T14:35:24.014Z,0.15
2023-01-21T14:38:01.000Z,0.25
2023-01-21T14:40:35.065Z,0.22
2023-01-21T14:43:04.607Z,0.34
2023-01-21T14:45:54.031Z,0.31
2023-01-21T14:48:36.487Z,0.20
2023-01-21T14:51:16.224Z,0.09
2023-01-21T14:53:50.905Z,0.00
2023-01-21T14:56:25.084Z,0.10
2023-01-21T14:58:56.242Z,-0.05
2023-01-21T15:01:31.879Z,-0.25
2023-01-21T15:04:04.555Z,-0.20
2023-01-21T15:06:38.475Z,-0.22
2023-01-21T15:09:20.546Z,-0.08
2023-01-21T15:11:53.890Z,-0.26
2023-01-21T15:14:24.803Z,-0.25
2023-01-21T15:16:57.054Z,-0.28
2023-01-21T15:19:31.291Z,-0.29
2023-01-21T15:22:19.805Z,-0.37
2023-01-21T15:25:22.530Z,-0.41
2023-01-21T15:28:46.406Z,-0.27
2023-01-21T15:31:45.221Z,-0.28
2023-01-21T15:34:16.346Z,-0.50
2023-01-21T15:36:47.596Z,-0.52
2023-01-21T15:39:18.848Z,-0.51
2023-01-21T15:42:01.462Z,-0.50
2023-01-21T15:44:50.631Z,-0.58
2023-01-21T15:47:41.530Z,-0.63
2023-01-21T15:50:18.389Z,-0.80
2023-01-21T15:53:05.218Z,-0.74
2023-01-21T15:56:01.149Z,-0.75
2023-01-21T15:58:40.077Z,-0.69
2023-01-21T16:01:15.820Z,-0.68
2023-01-21T16:03:50.451Z,-0.71
2023-01-21T16:06:27.124Z,-0.80
2023-01-21T16:09:05.139Z,-0.80
2023-01-21T16:11:49.383Z,-0.78
2023-01-21T16:14:32.009Z,-0.68
2023-01-21T16:17:19.102Z,-0.73
2023-01-21T16:19:50.078Z,-0.69
2023-01-21T16:22:22.327Z,-0.72
2023-01-21T16:24:55.322Z,-0.74
2023-01-21T16:27:26.049Z,-0.66
2023-01-21T16:29:59.759Z,-0.53
2023-01-21T16:32:32.503Z,-0.60
2023-01-21T16:35:02.226Z,-0.53
2023-01-21T16:37:32.912Z,-0.51
2023-01-21T16:40:28.298Z,-0.65
2023-01-21T16:43:12.971Z,-0.66
2023-01-21T16:46:32.813Z,-0.58
2023-01-21T16:49:05.045Z,-0.57
2023-01-21T16:51:35.447Z,-0.57
2023-01-21T16:54:26.598Z,-0.53
2023-01-21T16:57:00.674Z,-0.48
2023-01-21T16:59:31.400Z,-0.38
2023-01-21T17:02:02.008Z,-0.51
2023-01-21T17:04:41.267Z,-0.68
2023-01-21T17:07:15.487Z,-0.72
2023-01-21T17:10:08.726Z,-0.57
2023-01-21T17:12:40.299Z,-0.50
2023-01-21T17:15:19.205Z,-0.58
2023-01-21T17:18:10.667Z,-0.80
2023-01-21T17:20:46.100Z,-0.64
2023-01-21T17:23:18.069Z,-0.70
2023-01-21T17:25:52.745Z,-0.77
2023-01-21T17:28:31.825Z,-0.69
2023-01-21T17:31:23.836Z,-0.64
2023-01-21T17:34:19.860Z,-0.80
2023-01-21T17:36:50.736Z,-0.72
2023-01-21T17:40:01.226Z,-0.77
2023-01-21T17:42:39.368Z,-0.67
2023-01-21T17:45:17.734Z,-0.72
2023-01-21T17:48:12.490Z,-0.75
2023-01-21T17:50:48.572Z,-0.70
2023-01-21T17:53:46.235Z,-0.88
2023-01-21T17:56:16.864Z,-0.86
2023-01-21T17:59:01.432Z,-0.72
2023-01-21T18:01:33.586Z,-0.73
2023-01-21T18:04:02.893Z,-0.70
2023-01-21T18:06:40.589Z,-0.75
2023-01-21T18:09:23.306Z,-0.82
2023-01-21T18:11:53.430Z,-0.88
2023-01-21T18:14:25.491Z,-0.94
2023-01-21T18:16:55.211Z,-1.02
2023-01-21T18:19:31.193Z,-0.98
2023-01-21T18:22:14.391Z,-0.91
2023-01-21T18:25:09.801Z,-1.03
2023-01-21T18:27:39.225Z,-0.90
2023-01-21T18:30:25.689Z,-0.98
2023-01-21T18:33:05.056Z,-1.06
2023-01-21T18:35:34.224Z,-1.06
2023-01-21T18:38:19.503Z,-0.97
2023-01-21T18:40:48.723Z,-0.96
2023-01-21T18:43:18.960Z,-0.89
2023-01-21T18:45:48.661Z,-0.87
2023-01-21T18:48:18.775Z,-0.88
2023-01-21T18:50:55.183Z,-0.92
2023-01-21T18:53:28.115Z,-1.08
2023-01-21T18:55:57.315Z,-1.13
2023-01-21T18:58:26.529Z,-1.16
2023-01-21T19:00:57.856Z,-1.03
2023-01-21T19:03:26.870Z,-1.16
2023-01-21T19:05:55.940Z,-1.02
2023-01-21T19:08:28.736Z,-0.90
2023-01-21T19:10:57.655Z,-0.87
2023-01-21T19:13:26.849Z,-0.80
2023-01-21T19:15:57.813Z,-0.66
2023-01-21T19:18:27.925Z,-0.69
2023-01-21T19:20:57.311Z,-0.68
2023-01-21T19:23:27.818Z,-0.65
2023-01-21T19:25:59.689Z,-0.52
2023-01-21T19:28:29.575Z,-0.48
2023-01-21T19:31:01.955Z,-0.57
2023-01-21T19:33:32.429Z,-0.55
2023-01-21T19:36:04.389Z,-0.84
2023-01-21T19:38:34.807Z,-0.60
2023-01-21T19:41:04.823Z,-0.52
2023-01-21T19:43:46.617Z,-0.84
2023-01-21T19:46:15.968Z,-0.63
2023-01-21T19:48:45.224Z,-0.61
2023-01-21T19:51:14.613Z,-0.62
2023-01-21T19:53:45.576Z,-0.52
2023-01-21T19:56:16.511Z,-0.61
2023-01-21T19:58:49.076Z,-0.65
2023-01-21T20:01:32.880Z,-0.61
2023-01-21T20:04:02.045Z,-0.67
2023-01-21T20:06:42.209Z,-0.53
2023-01-21T20:09:17.833Z,-0.85
2023-01-21T20:11:47.125Z,-0.69
2023-01-21T20:14:16.443Z,-0.68
2023-01-21T20:16:47.583Z,-0.76
2023-01-21T20:19:17.719Z,-0.96
2023-01-21T20:21:59.928Z,-1.08
2023-01-21T20:24:34.358Z,-1.04
2023-01-21T20:27:28.322Z,-1.09
2023-01-21T20:30:14.781Z,-1.16
2023-01-21T20:32:45.056Z,-1.24
2023-01-21T20:35:17.397Z,-1.11
2023-01-21T20:38:00.432Z,-1.18
2023-01-21T20:40:33.211Z,-1.15
2023-01-21T20:43:02.915Z,-1.13
2023-01-21T20:45:45.255Z,-1.30
2023-01-21T20:48:20.361Z,-1.24
2023-01-21T20:50:49.374Z,-1.32
2023-01-21T20:53:21.020Z,-1.24
2023-01-21T20:55:52.241Z,-1.28
2023-01-21T20:58:24.324Z,-1.31
2023-01-21T21:00:53.590Z,-1.26
2023-01-21T21:03:22.936Z,-1.23
2023-01-21T21:06:02.264Z,-1.26
2023-01-21T21:08:31.359Z,-1.31
2023-01-21T21:11:04.609Z,-1.34
2023-01-21T21:13:47.679Z,-1.13
2023-01-21T21:16:21.329Z,-1.12
2023-01-21T21:18:50.647Z,-1.16
2023-01-21T21:21:23.482Z,-1.10
2023-01-21T21:23:55.723Z,-1.42
2023-01-21T21:26:29.514Z,-1.25
2023-01-21T21:28:58.747Z,-1.19
2023-01-21T21:31:40.943Z,-1.10
2023-01-21T21:34:11.334Z,-1.10
2023-01-21T21:36:43.044Z,-1.04
2023-01-21T21:39:19.438Z,-1.11
2023-01-21T21:42:07.426Z,-1.00
2023-01-21T21:44:40.022Z,-1.02
2023-01-21T21:47:28.044Z,-1.15
2023-01-21T21:49:59.408Z,-1.25
2023-01-21T21:52:31.898Z,-1.22
2023-01-21T21:55:03.556Z,-1.15
2023-01-21T21:57:42.166Z,-1.06
2023-01-21T22:00:13.003Z,-1.11
2023-01-21T22:02:42.645Z,-0.90
2023-01-21T22:08:04.354Z,-0.99
2023-01-21T22:10:35.902Z,-0.86
2023-01-21T22:13:07.542Z,-0.80
2023-01-21T22:15:36.955Z,-0.72
2023-01-21T22:18:19.830Z,-0.78
2023-01-21T22:20:52.395Z,-0.96
2023-01-21T22:23:32.107Z,-0.87
2023-01-21T22:26:03.665Z,-0.76
2023-01-21T22:28:34.191Z,-0.94
2023-01-21T22:31:04.831Z,-1.22
2023-01-21T22:33:34.917Z,-1.20
2023-01-21T22:36:08.252Z,-1.03
2023-01-21T22:38:40.537Z,-1.00
2023-01-21T22:41:13.708Z,-0.82
2023-01-21T22:43:45.872Z,-0.79
2023-01-21T22:46:16.340Z,-0.75
2023-01-21T22:48:46.539Z,-0.94
2023-01-21T22:51:17.008Z,-0.74
2023-01-21T22:53:46.374Z,-0.73
2023-01-21T22:56:20.366Z,-0.75
2023-01-21T22:58:52.496Z,-0.60
2023-01-21T23:01:23.352Z,-0.55
2023-01-21T23:03:55.415Z,-0.49
2023-01-21T23:06:27.199Z,-0.51
2023-01-21T23:08:56.517Z,-0.55
2023-01-21T23:11:39.641Z,-0.47
2023-01-21T23:14:12.700Z,-0.50
2023-01-21T23:16:42.631Z,-0.41
2023-01-21T23:19:12.221Z,-0.46
2023-01-21T23:21:41.748Z,-0.46
2023-01-21T23:24:11.143Z,-0.39
2023-01-21T23:26:40.346Z,-0.38
2023-01-21T23:29:09.851Z,-0.38
2023-01-21T23:31:41.187Z,-0.43
2023-01-21T23:34:24.228Z,-0.53
2023-01-21T23:36:53.422Z,-0.44
2023-01-21T23:39:23.033Z,-0.40
2023-01-21T23:41:55.457Z,-0.34
2023-01-21T23:44:25.630Z,-0.32
2023-01-21T23:46:56.906Z,-0.32
2023-01-21T23:49:26.130Z,-0.34
2023-01-21T23:51:55.185Z,-0.29
2023-01-21T23:54:24.139Z,-0.36
2023-01-21T23:56:53.572Z,-0.46
2023-01-21T23:59:31.995Z,-0.45
